sensor_id;sensor_type;location;lat;lon;timestamp;pressure;altitude;pressure_sealevel;temperature;humidity
11011;BME280;5558;42.702;23.178;2023-05-02T00:00:43;93973.91;;;8.49;100.00
11011;BME280;5558;42.702;23.178;2023-05-02T00:03:10;93972.94;;;8.55;100.00
11011;BME280;5558;42.702;23.178;2023-05-02T00:05:38;93968.53;;;8.60;100.00
11011;BME280;5558;42.702;23.178;2023-05-02T00:08:06;93966.53;;;8.51;100.00
11011;BME280;5558;42.702;23.178;2023-05-02T00:10:33;93965.03;;;8.55;100.00
11011;BME280;5558;42.702;23.178;2023-05-02T00:13:00;93966.28;;;8.69;100.00
11011;BME280;5558;42.702;23.178;2023-05-02T00:15:26;93971.41;;;8.59;100.00
11011;BME280;5558;42.702;23.178;2023-05-02T00:17:53;93976.47;;;8.44;100.00
11011;BME280;5558;42.702;23.178;2023-05-02T00:20:20;93975.81;;;8.53;100.00
11011;BME280;5558;42.702;23.178;2023-05-02T00:22:48;93974.84;;;8.59;100.00
11011;BME280;5558;42.702;23.178;2023-05-02T00:25:15;93982.94;;;8.53;100.00
11011;BME280;5558;42.702;23.178;2023-05-02T00:27:42;93978.00;;;8.40;100.00
11011;BME280;5558;42.702;23.178;2023-05-02T00:30:11;93977.94;;;8.35;100.00
11011;BME280;5558;42.702;23.178;2023-05-02T00:32:38;93985.28;;;8.33;100.00
11011;BME280;5558;42.702;23.178;2023-05-02T00:35:06;93991.81;;;8.47;100.00
11011;BME280;5558;42.702;23.178;2023-05-02T00:37:33;93973.94;;;8.32;100.00
11011;BME280;5558;42.702;23.178;2023-05-02T00:40:01;93983.31;;;8.61;100.00
11011;BME280;5558;42.702;23.178;2023-05-02T00:42:29;93983.13;;;8.68;100.00
11011;BME280;5558;42.702;23.178;2023-05-02T00:45:00;93996.72;;;8.38;100.00
11011;BME280;5558;42.702;23.178;2023-05-02T00:47:27;93999.56;;;8.53;100.00
11011;BME280;5558;42.702;23.178;2023-05-02T00:49:54;93996.19;;;8.58;100.00
11011;BME280;5558;42.702;23.178;2023-05-02T00:52:21;93938.06;;;8.31;100.00
11011;BME280;5558;42.702;23.178;2023-05-02T00:54:48;93992.91;;;8.51;100.00
11011;BME280;5558;42.702;23.178;2023-05-02T00:57:16;94001.34;;;8.31;100.00
11011;BME280;5558;42.702;23.178;2023-05-02T00:59:43;93994.41;;;8.42;100.00
11011;BME280;5558;42.702;23.178;2023-05-02T01:02:21;93989.00;;;8.20;100.00
11011;BME280;5558;42.702;23.178;2023-05-02T01:04:59;93989.28;;;8.02;100.00
11011;BME280;5558;42.702;23.178;2023-05-02T01:07:40;93990.53;;;7.83;100.00
11011;BME280;5558;42.702;23.178;2023-05-02T01:10:20;93990.16;;;7.91;100.00
11011;BME280;5558;42.702;23.178;2023-05-02T01:12:57;93986.00;;;7.95;100.00
11011;BME280;5558;42.702;23.178;2023-05-02T01:15:26;93986.31;;;7.82;100.00
11011;BME280;5558;42.702;23.178;2023-05-02T01:17:54;93986.81;;;7.63;100.00
11011;BME280;5558;42.702;23.178;2023-05-02T01:20:25;93993.31;;;7.43;100.00
11011;BME280;5558;42.702;23.178;2023-05-02T01:22:55;93986.72;;;7.74;100.00
11011;BME280;5558;42.702;23.178;2023-05-02T01:25:28;93976.28;;;7.79;100.00
11011;BME280;5558;42.702;23.178;2023-05-02T01:28:07;93973.72;;;7.84;100.00
11011;BME280;5558;42.702;23.178;2023-05-02T01:30:40;93979.06;;;7.89;100.00
11011;BME280;5558;42.702;23.178;2023-05-02T01:33:10;93981.03;;;7.49;100.00
11011;BME280;5558;42.702;23.178;2023-05-02T01:35:37;93986.25;;;7.61;100.00
11011;BME280;5558;42.702;23.178;2023-05-02T01:38:06;93981.91;;;7.55;100.00
11011;BME280;5558;42.702;23.178;2023-05-02T01:40:33;93985.81;;;7.52;100.00
11011;BME280;5558;42.702;23.178;2023-05-02T01:43:04;93980.94;;;7.44;100.00
11011;BME280;5558;42.702;23.178;2023-05-02T01:45:34;93986.84;;;7.51;100.00
11011;BME280;5558;42.702;23.178;2023-05-02T01:48:06;93982.97;;;7.70;100.00
11011;BME280;5558;42.702;23.178;2023-05-02T01:50:35;93985.53;;;7.82;100.00
11011;BME280;5558;42.702;23.178;2023-05-02T01:53:03;93982.09;;;7.81;100.00
11011;BME280;5558;42.702;23.178;2023-05-02T01:55:33;93976.34;;;7.84;100.00
11011;BME280;5558;42.702;23.178;2023-05-02T01:58:01;93986.50;;;7.92;100.00
11011;BME280;5558;42.702;23.178;2023-05-02T02:00:29;93989.44;;;7.96;100.00
11011;BME280;5558;42.702;23.178;2023-05-02T02:02:58;93987.69;;;8.01;100.00
11011;BME280;5558;42.702;23.178;2023-05-02T02:05:27;93987.84;;;8.11;100.00
11011;BME280;5558;42.702;23.178;2023-05-02T02:07:54;93990.63;;;7.72;100.00
11011;BME280;5558;42.702;23.178;2023-05-02T02:10:21;93983.44;;;7.84;100.00
11011;BME280;5558;42.702;23.178;2023-05-02T02:12:57;93963.78;;;7.75;100.00
11011;BME280;5558;42.702;23.178;2023-05-02T02:15:27;93970.44;;;7.94;100.00
11011;BME280;5558;42.702;23.178;2023-05-02T02:17:58;93986.72;;;7.74;100.00
11011;BME280;5558;42.702;23.178;2023-05-02T02:20:27;93978.66;;;7.64;100.00
11011;BME280;5558;42.702;23.178;2023-05-02T02:22:56;93984.38;;;7.61;100.00
11011;BME280;5558;42.702;23.178;2023-05-02T02:25:24;93990.69;;;7.60;100.00
11011;BME280;5558;42.702;23.178;2023-05-02T02:27:52;93986.88;;;7.68;100.00
11011;BME280;5558;42.702;23.178;2023-05-02T02:30:19;93981.44;;;7.58;100.00
11011;BME280;5558;42.702;23.178;2023-05-02T02:32:45;93983.44;;;7.51;100.00
11011;BME280;5558;42.702;23.178;2023-05-02T02:35:12;93982.88;;;7.49;100.00
11011;BME280;5558;42.702;23.178;2023-05-02T02:37:46;93993.97;;;7.51;100.00
11011;BME280;5558;42.702;23.178;2023-05-02T02:40:20;93982.72;;;7.55;100.00
11011;BME280;5558;42.702;23.178;2023-05-02T02:42:50;93999.84;;;7.13;100.00
11011;BME280;5558;42.702;23.178;2023-05-02T02:45:28;94005.16;;;7.01;100.00
11011;BME280;5558;42.702;23.178;2023-05-02T02:48:04;93993.00;;;7.00;100.00
11011;BME280;5558;42.702;23.178;2023-05-02T02:50:37;94007.84;;;6.78;100.00
11011;BME280;5558;42.702;23.178;2023-05-02T02:53:15;94009.03;;;6.99;100.00
11011;BME280;5558;42.702;23.178;2023-05-02T02:55:44;94009.91;;;7.16;100.00
11011;BME280;5558;42.702;23.178;2023-05-02T02:58:27;93959.03;;;6.71;100.00
11011;BME280;5558;42.702;23.178;2023-05-02T03:00:56;94012.47;;;6.99;100.00
11011;BME280;5558;42.702;23.178;2023-05-02T03:03:23;94021.56;;;7.20;100.00
11011;BME280;5558;42.702;23.178;2023-05-02T03:05:53;94011.22;;;7.30;100.00
11011;BME280;5558;42.702;23.178;2023-05-02T03:08:22;94018.56;;;7.28;100.00
11011;BME280;5558;42.702;23.178;2023-05-02T03:10:49;94022.25;;;7.15;100.00
11011;BME280;5558;42.702;23.178;2023-05-02T03:13:16;94023.06;;;7.16;100.00
11011;BME280;5558;42.702;23.178;2023-05-02T03:18:46;94014.56;;;7.25;100.00
11011;BME280;5558;42.702;23.178;2023-05-02T03:21:13;94020.53;;;7.49;100.00
11011;BME280;5558;42.702;23.178;2023-05-02T03:23:42;94025.25;;;7.64;100.00
11011;BME280;5558;42.702;23.178;2023-05-02T03:26:08;94022.72;;;7.69;100.00
11011;BME280;5558;42.702;23.178;2023-05-02T03:28:35;94020.75;;;7.76;100.00
11011;BME280;5558;42.702;23.178;2023-05-02T03:31:02;94026.09;;;7.81;100.00
11011;BME280;5558;42.702;23.178;2023-05-02T03:33:28;94034.56;;;7.99;100.00
11011;BME280;5558;42.702;23.178;2023-05-02T03:35:56;94024.75;;;8.44;100.00
11011;BME280;5558;42.702;23.178;2023-05-02T03:38:22;94027.16;;;9.06;100.00
11011;BME280;5558;42.702;23.178;2023-05-02T03:40:50;94022.50;;;9.88;100.00
11011;BME280;5558;42.702;23.178;2023-05-02T03:43:17;94020.06;;;10.86;100.00
11011;BME280;5558;42.702;23.178;2023-05-02T03:45:44;94027.56;;;11.71;100.00
11011;BME280;5558;42.702;23.178;2023-05-02T03:48:11;94028.16;;;12.23;100.00
11011;BME280;5558;42.702;23.178;2023-05-02T03:50:37;94034.00;;;12.45;94.02
11011;BME280;5558;42.702;23.178;2023-05-02T03:53:04;94020.41;;;12.97;87.67
11011;BME280;5558;42.702;23.178;2023-05-02T03:55:32;94031.63;;;13.63;80.41
11011;BME280;5558;42.702;23.178;2023-05-02T03:58:00;94039.72;;;14.68;71.84
11011;BME280;5558;42.702;23.178;2023-05-02T04:00:28;94035.88;;;15.79;65.47
11011;BME280;5558;42.702;23.178;2023-05-02T04:02:54;94027.91;;;16.67;59.79
11011;BME280;5558;42.702;23.178;2023-05-02T04:05:21;94031.63;;;17.71;55.47
11011;BME280;5558;42.702;23.178;2023-05-02T04:07:48;94037.63;;;18.53;52.45
11011;BME280;5558;42.702;23.178;2023-05-02T04:10:14;94030.25;;;19.72;49.53
11011;BME280;5558;42.702;23.178;2023-05-02T04:12:42;94031.22;;;20.49;45.82
11011;BME280;5558;42.702;23.178;2023-05-02T04:15:10;94040.41;;;21.00;44.11
11011;BME280;5558;42.702;23.178;2023-05-02T04:17:37;94034.09;;;21.50;43.29
11011;BME280;5558;42.702;23.178;2023-05-02T04:20:05;94025.22;;;22.17;41.88
11011;BME280;5558;42.702;23.178;2023-05-02T04:22:32;94018.38;;;22.40;40.67
11011;BME280;5558;42.702;23.178;2023-05-02T04:24:59;94034.34;;;22.94;39.75
11011;BME280;5558;42.702;23.178;2023-05-02T04:27:26;94039.63;;;23.24;38.88
11011;BME280;5558;42.702;23.178;2023-05-02T04:29:53;94037.59;;;23.65;37.75
11011;BME280;5558;42.702;23.178;2023-05-02T04:32:22;94036.50;;;24.27;37.17
11011;BME280;5558;42.702;23.178;2023-05-02T04:34:49;94040.06;;;25.22;35.61
11011;BME280;5558;42.702;23.178;2023-05-02T04:37:16;94041.91;;;25.18;35.09
11011;BME280;5558;42.702;23.178;2023-05-02T04:39:42;94043.28;;;25.12;34.89
11011;BME280;5558;42.702;23.178;2023-05-02T04:42:09;94038.59;;;25.83;34.14
11011;BME280;5558;42.702;23.178;2023-05-02T04:44:36;94044.69;;;26.08;33.22
11011;BME280;5558;42.702;23.178;2023-05-02T04:47:02;94043.06;;;26.73;32.55
11011;BME280;5558;42.702;23.178;2023-05-02T04:49:31;94043.03;;;26.54;32.53
11011;BME280;5558;42.702;23.178;2023-05-02T04:51:58;94043.16;;;26.41;32.22
11011;BME280;5558;42.702;23.178;2023-05-02T04:54:25;94038.66;;;27.03;31.51
11011;BME280;5558;42.702;23.178;2023-05-02T04:56:52;94046.66;;;27.15;31.10
11011;BME280;5558;42.702;23.178;2023-05-02T04:59:19;94048.03;;;27.43;30.74
11011;BME280;5558;42.702;23.178;2023-05-02T05:01:45;94050.72;;;27.63;30.27
11011;BME280;5558;42.702;23.178;2023-05-02T05:04:12;94045.31;;;26.86;31.32
11011;BME280;5558;42.702;23.178;2023-05-02T05:06:40;94046.59;;;26.07;32.41
11011;BME280;5558;42.702;23.178;2023-05-02T05:09:07;94048.16;;;26.08;32.40
11011;BME280;5558;42.702;23.178;2023-05-02T05:11:34;94046.72;;;24.97;34.34
11011;BME280;5558;42.702;23.178;2023-05-02T05:14:00;94047.56;;;24.09;35.41
11011;BME280;5558;42.702;23.178;2023-05-02T05:16:28;94047.38;;;23.70;36.08
11011;BME280;5558;42.702;23.178;2023-05-02T05:18:56;94044.50;;;23.30;36.87
11011;BME280;5558;42.702;23.178;2023-05-02T05:21:22;94046.84;;;22.58;38.50
11011;BME280;5558;42.702;23.178;2023-05-02T05:23:50;94046.00;;;22.16;39.68
11011;BME280;5558;42.702;23.178;2023-05-02T05:26:17;94021.50;;;22.01;39.46
11011;BME280;5558;42.702;23.178;2023-05-02T05:28:45;94041.44;;;22.99;38.42
11011;BME280;5558;42.702;23.178;2023-05-02T05:31:12;94053.84;;;24.26;36.22
11011;BME280;5558;42.702;23.178;2023-05-02T05:33:41;94058.72;;;25.67;33.93
11011;BME280;5558;42.702;23.178;2023-05-02T05:36:10;94053.31;;;26.13;32.67
11011;BME280;5558;42.702;23.178;2023-05-02T05:38:37;94058.78;;;27.17;31.60
11011;BME280;5558;42.702;23.178;2023-05-02T05:41:06;94064.19;;;28.20;30.09
11011;BME280;5558;42.702;23.178;2023-05-02T05:43:33;94069.38;;;28.77;29.04
11011;BME280;5558;42.702;23.178;2023-05-02T05:46:00;94061.41;;;29.87;27.64
11011;BME280;5558;42.702;23.178;2023-05-02T05:48:27;94066.72;;;30.60;26.49
11011;BME280;5558;42.702;23.178;2023-05-02T05:50:54;94073.41;;;31.28;25.72
11011;BME280;5558;42.702;23.178;2023-05-02T05:53:20;94065.56;;;31.26;25.64
11011;BME280;5558;42.702;23.178;2023-05-02T05:55:47;94075.88;;;31.54;25.30
11011;BME280;5558;42.702;23.178;2023-05-02T05:58:15;94075.63;;;31.94;25.12
11011;BME280;5558;42.702;23.178;2023-05-02T06:00:42;94081.53;;;32.10;25.16
11011;BME280;5558;42.702;23.178;2023-05-02T06:03:08;94081.53;;;31.99;24.28
11011;BME280;5558;42.702;23.178;2023-05-02T06:05:35;94078.81;;;27.47;28.74
11011;BME280;5558;42.702;23.178;2023-05-02T06:08:02;94068.91;;;25.14;32.69
11011;BME280;5558;42.702;23.178;2023-05-02T06:10:30;94069.94;;;22.47;35.98
11011;BME280;5558;42.702;23.178;2023-05-02T06:12:56;94054.75;;;22.13;37.82
11011;BME280;5558;42.702;23.178;2023-05-02T06:15:24;94064.78;;;19.96;42.09
11011;BME280;5558;42.702;23.178;2023-05-02T06:17:51;94068.56;;;19.47;43.07
11011;BME280;5558;42.702;23.178;2023-05-02T06:20:18;94065.63;;;18.82;44.63
11011;BME280;5558;42.702;23.178;2023-05-02T06:22:45;94062.88;;;18.38;45.96
11011;BME280;5558;42.702;23.178;2023-05-02T06:25:11;94052.19;;;18.24;46.98
11011;BME280;5558;42.702;23.178;2023-05-02T06:27:38;94055.59;;;18.03;47.32
11011;BME280;5558;42.702;23.178;2023-05-02T06:30:06;94053.28;;;18.59;46.31
11011;BME280;5558;42.702;23.178;2023-05-02T06:32:34;94056.03;;;18.46;47.10
11011;BME280;5558;42.702;23.178;2023-05-02T06:35:01;94054.44;;;17.95;48.48
11011;BME280;5558;42.702;23.178;2023-05-02T06:37:32;94051.88;;;17.50;48.58
11011;BME280;5558;42.702;23.178;2023-05-02T06:40:00;94055.28;;;18.18;47.28
11011;BME280;5558;42.702;23.178;2023-05-02T06:42:27;94035.50;;;18.41;46.33
11011;BME280;5558;42.702;23.178;2023-05-02T06:44:54;94057.25;;;18.40;47.28
11011;BME280;5558;42.702;23.178;2023-05-02T06:47:21;94057.09;;;17.95;48.20
11011;BME280;5558;42.702;23.178;2023-05-02T06:49:50;94059.19;;;17.58;48.42
11011;BME280;5558;42.702;23.178;2023-05-02T06:52:17;94054.16;;;17.56;48.94
11011;BME280;5558;42.702;23.178;2023-05-02T06:54:43;94050.78;;;17.64;50.18
11011;BME280;5558;42.702;23.178;2023-05-02T06:57:10;94051.28;;;18.29;48.96
11011;BME280;5558;42.702;23.178;2023-05-02T06:59:37;94058.97;;;17.95;47.57
11011;BME280;5558;42.702;23.178;2023-05-02T07:02:03;94052.06;;;16.94;49.65
11011;BME280;5558;42.702;23.178;2023-05-02T07:04:30;94056.22;;;17.46;49.08
11011;BME280;5558;42.702;23.178;2023-05-02T07:06:58;94062.38;;;16.68;50.27
11011;BME280;5558;42.702;23.178;2023-05-02T07:09:25;94057.50;;;16.89;50.00
11011;BME280;5558;42.702;23.178;2023-05-02T07:11:52;94060.03;;;17.13;49.89
11011;BME280;5558;42.702;23.178;2023-05-02T07:14:18;94059.31;;;17.53;49.54
11011;BME280;5558;42.702;23.178;2023-05-02T07:16:46;94059.25;;;17.26;50.56
11011;BME280;5558;42.702;23.178;2023-05-02T07:19:12;94073.44;;;16.62;50.30
11011;BME280;5558;42.702;23.178;2023-05-02T07:21:39;94066.47;;;17.25;50.65
11011;BME280;5558;42.702;23.178;2023-05-02T07:24:07;94071.19;;;17.01;50.30
11011;BME280;5558;42.702;23.178;2023-05-02T07:26:34;94072.19;;;16.17;50.68
11011;BME280;5558;42.702;23.178;2023-05-02T07:29:01;94063.19;;;16.50;51.23
11011;BME280;5558;42.702;23.178;2023-05-02T07:31:31;94056.00;;;16.64;51.10
11011;BME280;5558;42.702;23.178;2023-05-02T07:33:57;94067.09;;;16.90;51.99
11011;BME280;5558;42.702;23.178;2023-05-02T07:36:24;94062.66;;;16.99;49.78
11011;BME280;5558;42.702;23.178;2023-05-02T07:38:52;94064.09;;;16.78;52.48
11011;BME280;5558;42.702;23.178;2023-05-02T07:41:20;94069.81;;;16.16;50.58
11011;BME280;5558;42.702;23.178;2023-05-02T07:43:47;94066.34;;;16.34;52.05
11011;BME280;5558;42.702;23.178;2023-05-02T07:46:13;94064.97;;;16.73;50.34
11011;BME280;5558;42.702;23.178;2023-05-02T07:48:40;94071.34;;;16.59;50.48
11011;BME280;5558;42.702;23.178;2023-05-02T07:51:08;94083.53;;;16.65;50.06
11011;BME280;5558;42.702;23.178;2023-05-02T07:53:35;94065.78;;;16.37;51.71
11011;BME280;5558;42.702;23.178;2023-05-02T07:56:02;94063.19;;;16.32;51.16
11011;BME280;5558;42.702;23.178;2023-05-02T07:58:30;94072.78;;;16.33;50.37
11011;BME280;5558;42.702;23.178;2023-05-02T08:00:57;94064.75;;;16.33;50.18
11011;BME280;5558;42.702;23.178;2023-05-02T08:03:24;94063.34;;;16.59;50.33
11011;BME280;5558;42.702;23.178;2023-05-02T08:05:52;94065.78;;;17.20;51.19
11011;BME280;5558;42.702;23.178;2023-05-02T08:08:19;94072.22;;;17.32;47.69
11011;BME280;5558;42.702;23.178;2023-05-02T08:10:46;94058.28;;;17.22;46.98
11011;BME280;5558;42.702;23.178;2023-05-02T08:13:14;94072.38;;;17.08;49.53
11011;BME280;5558;42.702;23.178;2023-05-02T08:15:42;94070.19;;;16.97;49.92
11011;BME280;5558;42.702;23.178;2023-05-02T08:18:10;94067.97;;;16.85;49.27
11011;BME280;5558;42.702;23.178;2023-05-02T08:20:37;94073.97;;;16.96;48.61
11011;BME280;5558;42.702;23.178;2023-05-02T08:23:03;94070.09;;;17.02;48.98
11011;BME280;5558;42.702;23.178;2023-05-02T08:25:30;94060.16;;;17.35;48.67
11011;BME280;5558;42.702;23.178;2023-05-02T08:27:57;94053.03;;;17.84;46.56
11011;BME280;5558;42.702;23.178;2023-05-02T08:30:24;94069.06;;;17.44;47.33
11011;BME280;5558;42.702;23.178;2023-05-02T08:32:52;94075.97;;;17.04;48.03
11011;BME280;5558;42.702;23.178;2023-05-02T08:35:19;94059.31;;;17.07;47.33
11011;BME280;5558;42.702;23.178;2023-05-02T08:37:46;94070.72;;;17.13;49.61
11011;BME280;5558;42.702;23.178;2023-05-02T08:40:13;94060.41;;;17.52;48.98
11011;BME280;5558;42.702;23.178;2023-05-02T08:42:43;94067.72;;;17.46;49.07
11011;BME280;5558;42.702;23.178;2023-05-02T08:45:11;94061.78;;;17.63;49.24
11011;BME280;5558;42.702;23.178;2023-05-02T08:47:39;94068.22;;;17.48;48.02
11011;BME280;5558;42.702;23.178;2023-05-02T08:50:08;94061.88;;;17.58;47.94
11011;BME280;5558;42.702;23.178;2023-05-02T08:52:35;94051.69;;;17.60;46.84
11011;BME280;5558;42.702;23.178;2023-05-02T08:55:03;94060.97;;;17.89;47.11
11011;BME280;5558;42.702;23.178;2023-05-02T08:57:31;94044.34;;;17.79;48.33
11011;BME280;5558;42.702;23.178;2023-05-02T08:59:58;94051.75;;;17.82;47.31
11011;BME280;5558;42.702;23.178;2023-05-02T09:02:38;94063.59;;;17.67;48.05
11011;BME280;5558;42.702;23.178;2023-05-02T09:05:11;94053.56;;;17.59;47.48
11011;BME280;5558;42.702;23.178;2023-05-02T09:07:45;94040.97;;;17.73;47.15
11011;BME280;5558;42.702;23.178;2023-05-02T09:10:12;94046.41;;;17.82;46.52
11011;BME280;5558;42.702;23.178;2023-05-02T09:12:39;94032.22;;;17.54;47.36
11011;BME280;5558;42.702;23.178;2023-05-02T09:15:08;94053.13;;;17.79;46.33
11011;BME280;5558;42.702;23.178;2023-05-02T09:17:40;94051.47;;;17.83;45.55
11011;BME280;5558;42.702;23.178;2023-05-02T09:20:09;94049.19;;;17.63;46.41
11011;BME280;5558;42.702;23.178;2023-05-02T09:22:36;94045.78;;;17.31;47.52
11011;BME280;5558;42.702;23.178;2023-05-02T09:25:04;94046.22;;;17.65;48.93
11011;BME280;5558;42.702;23.178;2023-05-02T09:27:47;94052.25;;;17.43;46.20
11011;BME280;5558;42.702;23.178;2023-05-02T09:30:20;94056.97;;;17.33;48.84
11011;BME280;5558;42.702;23.178;2023-05-02T09:32:48;94049.75;;;17.33;46.96
11011;BME280;5558;42.702;23.178;2023-05-02T09:35:18;94047.03;;;17.52;47.11
11011;BME280;5558;42.702;23.178;2023-05-02T09:37:52;94050.66;;;17.69;46.76
11011;BME280;5558;42.702;23.178;2023-05-02T09:40:19;94045.91;;;17.66;46.90
11011;BME280;5558;42.702;23.178;2023-05-02T09:42:46;94046.31;;;17.46;46.44
11011;BME280;5558;42.702;23.178;2023-05-02T09:45:20;94039.19;;;17.82;44.81
11011;BME280;5558;42.702;23.178;2023-05-02T09:47:47;94036.19;;;17.97;45.17
11011;BME280;5558;42.702;23.178;2023-05-02T09:50:35;94035.28;;;18.38;46.27
11011;BME280;5558;42.702;23.178;2023-05-02T09:53:03;94039.72;;;17.93;44.98
11011;BME280;5558;42.702;23.178;2023-05-02T09:55:30;94028.94;;;17.84;44.86
11011;BME280;5558;42.702;23.178;2023-05-02T09:57:58;94031.72;;;17.79;45.84
11011;BME280;5558;42.702;23.178;2023-05-02T10:00:38;94029.84;;;17.66;45.46
11011;BME280;5558;42.702;23.178;2023-05-02T10:03:05;94025.91;;;18.13;45.11
11011;BME280;5558;42.702;23.178;2023-05-02T10:05:35;94026.84;;;18.66;43.28
11011;BME280;5558;42.702;23.178;2023-05-02T10:08:03;94033.56;;;18.55;44.55
11011;BME280;5558;42.702;23.178;2023-05-02T10:10:31;94021.28;;;18.41;44.60
11011;BME280;5558;42.702;23.178;2023-05-02T10:12:59;94018.06;;;18.52;45.26
11011;BME280;5558;42.702;23.178;2023-05-02T10:15:30;94016.69;;;18.77;43.58
11011;BME280;5558;42.702;23.178;2023-05-02T10:17:58;93999.19;;;18.57;43.16
11011;BME280;5558;42.702;23.178;2023-05-02T10:20:30;94022.28;;;18.45;42.71
11011;BME280;5558;42.702;23.178;2023-05-02T10:23:00;94015.75;;;18.59;43.26
11011;BME280;5558;42.702;23.178;2023-05-02T10:25:27;94014.31;;;18.53;45.46
11011;BME280;5558;42.702;23.178;2023-05-02T10:27:55;94008.16;;;18.39;41.32
11011;BME280;5558;42.702;23.178;2023-05-02T10:30:23;94007.91;;;18.63;42.53
11011;BME280;5558;42.702;23.178;2023-05-02T10:32:51;94005.19;;;18.85;41.86
11011;BME280;5558;42.702;23.178;2023-05-02T10:35:19;94001.97;;;18.74;43.20
11011;BME280;5558;42.702;23.178;2023-05-02T10:37:46;93994.91;;;18.56;42.73
11011;BME280;5558;42.702;23.178;2023-05-02T10:40:17;94015.09;;;18.18;41.49
11011;BME280;5558;42.702;23.178;2023-05-02T10:42:45;93997.59;;;18.56;43.08
11011;BME280;5558;42.702;23.178;2023-05-02T10:45:29;94002.31;;;18.37;40.86
11011;BME280;5558;42.702;23.178;2023-05-02T10:48:12;94011.16;;;19.04;40.44
11011;BME280;5558;42.702;23.178;2023-05-02T10:50:44;94000.97;;;19.14;39.51
11011;BME280;5558;42.702;23.178;2023-05-02T10:53:21;94004.22;;;18.81;39.66
11011;BME280;5558;42.702;23.178;2023-05-02T10:56:14;94000.94;;;18.84;39.83
11011;BME280;5558;42.702;23.178;2023-05-02T10:58:42;93988.81;;;19.17;40.90
11011;BME280;5558;42.702;23.178;2023-05-02T11:01:31;93989.72;;;19.34;37.90
11011;BME280;5558;42.702;23.178;2023-05-02T11:03:59;93998.94;;;19.28;38.30
11011;BME280;5558;42.702;23.178;2023-05-02T11:06:27;93991.72;;;18.98;38.43
11011;BME280;5558;42.702;23.178;2023-05-02T11:11:57;93986.66;;;19.27;37.77
11011;BME280;5558;42.702;23.178;2023-05-02T11:14:51;93985.78;;;19.40;38.90
11011;BME280;5558;42.702;23.178;2023-05-02T11:17:17;93985.50;;;19.20;38.30
11011;BME280;5558;42.702;23.178;2023-05-02T11:22:49;93982.75;;;19.90;38.86
11011;BME280;5558;42.702;23.178;2023-05-02T11:25:33;93984.00;;;19.75;37.93
11011;BME280;5558;42.702;23.178;2023-05-02T11:28:02;93975.94;;;19.75;37.21
11011;BME280;5558;42.702;23.178;2023-05-02T11:30:42;93968.25;;;20.33;36.34
11011;BME280;5558;42.702;23.178;2023-05-02T11:33:16;93969.69;;;20.39;35.51
11011;BME280;5558;42.702;23.178;2023-05-02T11:35:45;93967.16;;;20.43;35.60
11011;BME280;5558;42.702;23.178;2023-05-02T11:38:18;93962.66;;;19.96;36.43
11011;BME280;5558;42.702;23.178;2023-05-02T11:40:57;93968.91;;;20.22;39.27
11011;BME280;5558;42.702;23.178;2023-05-02T11:43:27;93955.91;;;20.07;35.76
11011;BME280;5558;42.702;23.178;2023-05-02T11:45:54;93953.53;;;20.14;36.21
11011;BME280;5558;42.702;23.178;2023-05-02T11:48:22;93950.72;;;20.19;37.03
11011;BME280;5558;42.702;23.178;2023-05-02T11:50:52;93939.81;;;20.24;35.55
11011;BME280;5558;42.702;23.178;2023-05-02T11:53:21;93942.78;;;19.97;36.53
11011;BME280;5558;42.702;23.178;2023-05-02T11:55:50;93937.91;;;20.24;38.95
11011;BME280;5558;42.702;23.178;2023-05-02T11:58:19;93939.09;;;19.76;36.96
11011;BME280;5558;42.702;23.178;2023-05-02T12:00:49;93929.66;;;20.12;36.22
11011;BME280;5558;42.702;23.178;2023-05-02T12:03:25;93916.66;;;20.06;37.63
11011;BME280;5558;42.702;23.178;2023-05-02T12:05:52;93919.53;;;19.84;35.96
11011;BME280;5558;42.702;23.178;2023-05-02T12:08:20;93919.50;;;19.67;39.34
11011;BME280;5558;42.702;23.178;2023-05-02T12:10:49;93883.13;;;19.04;39.61
11011;BME280;5558;42.702;23.178;2023-05-02T12:13:17;93919.84;;;19.26;37.72
11011;BME280;5558;42.702;23.178;2023-05-02T12:15:44;93907.13;;;19.40;39.17
11011;BME280;5558;42.702;23.178;2023-05-02T12:18:13;93899.03;;;19.31;39.14
11011;BME280;5558;42.702;23.178;2023-05-02T12:20:41;93892.09;;;19.30;40.04
11011;BME280;5558;42.702;23.178;2023-05-02T12:23:08;93911.78;;;19.65;40.51
11011;BME280;5558;42.702;23.178;2023-05-02T12:25:39;93882.53;;;19.47;38.92
11011;BME280;5558;42.702;23.178;2023-05-02T12:28:07;93896.13;;;19.76;41.46
11011;BME280;5558;42.702;23.178;2023-05-02T12:30:36;93897.53;;;19.65;37.97
11011;BME280;5558;42.702;23.178;2023-05-02T12:33:04;93880.75;;;19.42;38.04
11011;BME280;5558;42.702;23.178;2023-05-02T12:35:33;93886.44;;;19.49;39.60
11011;BME280;5558;42.702;23.178;2023-05-02T12:38:11;93877.13;;;19.29;39.56
11011;BME280;5558;42.702;23.178;2023-05-02T12:40:44;93868.53;;;19.27;40.67
11011;BME280;5558;42.702;23.178;2023-05-02T12:43:12;93872.06;;;19.36;39.25
11011;BME280;5558;42.702;23.178;2023-05-02T12:45:38;93866.41;;;19.55;40.83
11011;BME280;5558;42.702;23.178;2023-05-02T12:48:27;93868.44;;;19.32;38.84
11011;BME280;5558;42.702;23.178;2023-05-02T12:50:56;93857.47;;;19.20;38.52
11011;BME280;5558;42.702;23.178;2023-05-02T12:53:39;93855.75;;;19.24;37.92
11011;BME280;5558;42.702;23.178;2023-05-02T12:56:06;93853.94;;;19.03;38.41
11011;BME280;5558;42.702;23.178;2023-05-02T12:58:40;93859.94;;;19.65;40.06
11011;BME280;5558;42.702;23.178;2023-05-02T13:01:08;93851.72;;;19.70;37.42
11011;BME280;5558;42.702;23.178;2023-05-02T13:03:35;93847.75;;;19.33;36.84
11011;BME280;5558;42.702;23.178;2023-05-02T13:06:03;93840.25;;;19.21;37.44
11011;BME280;5558;42.702;23.178;2023-05-02T13:08:31;93858.13;;;19.26;37.54
11011;BME280;5558;42.702;23.178;2023-05-02T13:10:57;93855.25;;;19.14;37.54
11011;BME280;5558;42.702;23.178;2023-05-02T13:13:24;93855.94;;;18.80;37.67
11011;BME280;5558;42.702;23.178;2023-05-02T13:15:51;93844.09;;;18.81;38.60
11011;BME280;5558;42.702;23.178;2023-05-02T13:18:17;93861.97;;;18.94;38.12